Time;durP1;ratioP1;P1;durP2;ratioP2;P2;SDS_P1;SDS_P2;PMS_P1;PMS_P2;Temp;Humidity;BMP_temperature;BMP_pressure;BME280_temperature;BME280_humidity;BME280_pressure;Samples;Min_cycle;Max_cycle;Signal;HPM_P1;HPM_P2
2023/01/21 00:00:22;;;;;;;;;;;;;;;;;;5035123;28;20371;-90
2023/01/21 00:02:47;;;;;;;;;;;;;;;;;;5035485;28;19921;-91
2023/01/21 00:05:13;;;;;;;;;;;;;;;;;;5035341;28;19921;-90
2023/01/21 00:07:39;;;;;;;;;;;;;;;;;;5051777;28;19925;-90
2023/01/21 00:10:05;;;;;;;;;;;;;;;;;;5035633;28;19932;-91
2023/01/21 00:12:31;;;;;;;;;;;;;;;;;;5035384;28;19921;-91
2023/01/21 00:14:57;;;;;;;;;;;;;;;;;;5052205;28;20183;-91
2023/01/21 00:17:23;;;;;;;;;;;;;;;;;;5035257;28;19920;-91
2023/01/21 00:19:49;;;;;;;;;;;;;;;;;;5035549;28;20368;-91
2023/01/21 00:22:15;;;;;;;;;;;;;;;;;;5051928;28;20363;-91
2023/01/21 00:24:41;;;;;;;;;;;;;;;;;;5052110;28;19967;-91
2023/01/21 00:27:07;;;;;;;;;;;;;;;;;;5051737;28;19925;-90
2023/01/21 00:29:33;;;;;;;;;;;;;;;;;;5035429;28;19924;-92
2023/01/21 00:31:58;;;;;;;;;;;;;;;;;;5052004;28;19925;-91
2023/01/21 00:34:24;;;;;;;;;;;;;;;;;;5051632;28;19990;-91
2023/01/21 00:36:50;;;;;;;;;;;;;;;;;;5035325;28;19921;-91
2023/01/21 00:39:16;;;;;;;;;;;;;;;;;;5051536;28;19928;-91
2023/01/21 00:41:42;;;;;;;;;;;;;;;;;;5034933;28;19925;-91
2023/01/21 00:44:08;;;;;;;;;;;;;;;;;;5035092;28;19921;-91
2023/01/21 00:46:34;;;;;;;;;;;;;;;;;;5035277;28;19927;-91
2023/01/21 00:49:00;;;;;;;;;;;;;;;;;;5051687;28;20291;-90
2023/01/21 00:51:26;;;;;;;;;;;;;;;;;;5035352;28;20336;-91
2023/01/21 00:53:52;;;;;;;;;;;;;;;;;;5035052;28;20352;-91
2023/01/21 00:56:18;;;;;;;;;;;;;;;;;;5034696;28;19921;-91
2023/01/21 00:58:44;;;;;;;;;;;;;;;;;;5051310;28;19928;-90
2023/01/21 01:01:10;;;;;;;;;;;;;;;;;;5051161;28;19976;-91
2023/01/21 01:03:36;;;;;;;;;;;;;;;;;;5034140;28;19928;-90
2023/01/21 01:06:02;;;;;;;;;;;;;;;;;;5034627;28;19920;-91
2023/01/21 01:08:28;;;;;;;;;;;;;;;;;;5034595;28;20075;-91
2023/01/21 01:10:54;;;;;;;;;;;;;;;;;;5051203;28;19967;-91
2023/01/21 01:13:20;;;;;;;;;;;;;;;;;;5051009;28;19990;-91
2023/01/21 01:15:47;;;;;;;;;;;;;;;;;;5034733;28;20258;-91
2023/01/21 01:18:13;;;;;;;;;;;;;;;;;;5051383;28;19928;-90
2023/01/21 01:20:39;;;;;;;;;;;;;;;;;;5051355;28;19925;-91
2023/01/21 01:23:05;;;;;;;;;;;;;;;;;;5034592;28;19921;-90
2023/01/21 01:25:30;;;;;;;;;;;;;;;;;;5034280;28;20015;-90
2023/01/21 01:27:56;;;;;;;;;;;;;;;;;;5034314;28;20487;-90
2023/01/21 01:30:22;;;;;;;;;;;;;;;;;;5050996;28;19946;-90
2023/01/21 01:32:48;;;;;;;;;;;;;;;;;;5034377;28;19928;-90
2023/01/21 01:35:14;;;;;;;;;;;;;;;;;;5034371;28;19928;-90
2023/01/21 01:37:40;;;;;;;;;;;;;;;;;;5050991;28;20287;-89
2023/01/21 01:40:06;;;;;;;;;;;;;;;;;;5033868;28;19932;-90
2023/01/21 01:42:32;;;;;;;;;;;;;;;;;;5034081;28;19921;-91
2023/01/21 01:44:58;;;;;;;;;;;;;;;;;;5034131;28;19929;-89
2023/01/21 01:47:24;;;;;;;;;;;;;;;;;;5033882;28;19925;-90
2023/01/21 01:49:50;;;;;;;;;;;;;;;;;;5050823;28;19927;-90
2023/01/21 01:52:15;;;;;;;;;;;;;;;;;;5034082;28;19927;-90
2023/01/21 01:54:41;;;;;;;;;;;;;;;;;;5034175;28;19927;-90
2023/01/21 01:57:07;;;;;;;;;;;;;;;;;;5034032;28;19947;-90
2023/01/21 01:59:33;;;;;;;;;;;;;;;;;;5033976;28;19925;-91
2023/01/21 02:01:59;;;;;;;;;;;;;;;;;;5050474;28;19925;-90
2023/01/21 02:04:25;;;;;;;;;;;;;;;;;;5034024;28;19921;-90
2023/01/21 02:06:51;;;;;;;;;;;;;;;;;;5034227;28;20346;-90
2023/01/21 02:09:17;;;;;;;;;;;;;;;;;;5034090;28;19982;-90
2023/01/21 02:11:43;;;;;;;;;;;;;;;;;;5034222;28;19928;-90
2023/01/21 02:14:09;;;;;;;;;;;;;;;;;;5050525;28;19921;-90
2023/01/21 02:16:35;;;;;;;;;;;;;;;;;;5053578;28;19921;-90
2023/01/21 02:19:00;;;;;;;;;;;;;;;;;;5053820;28;20375;-89
2023/01/21 02:21:26;;;;;;;;;;;;;;;;;;5053682;28;20024;-90
2023/01/21 02:23:52;;;;;;;;;;;;;;;;;;5053589;28;19921;-89
2023/01/21 02:26:18;;;;;;;;;;;;;;;;;;5053260;28;19927;-89
2023/01/21 02:28:44;;;;;;;;;;;;;;;;;;5053548;28;19968;-89
2023/01/21 02:31:10;;;;;;;;;;;;;;;;;;5036843;28;19968;-89
2023/01/21 02:33:36;;;;;;;;;;;;;;;;;;5036686;28;20384;-89
2023/01/21 02:36:02;;;;;;;;;;;;;;;;;;5036648;28;19920;-90
2023/01/21 02:38:28;;;;;;;;;;;;;;;;;;5036412;28;19928;-89
2023/01/21 02:40:54;;;;;;;;;;;;;;;;;;5036431;28;20024;-89
2023/01/21 02:43:19;;;;;;;;;;;;;;;;;;5053442;28;20387;-89
2023/01/21 02:45:46;;;;;;;;;;;;;;;;;;5036154;28;19920;-89
2023/01/21 02:48:14;;;;;;;;;;;;;;;;;;5036989;28;20296;-89
2023/01/21 02:50:40;;;;;;;;;;;;;;;;;;5036538;28;19927;-89
2023/01/21 02:53:06;;;;;;;;;;;;;;;;;;5052924;28;20441;-89
2023/01/21 02:55:32;;;;;;;;;;;;;;;;;;5037047;28;19944;-89
2023/01/21 02:57:58;;;;;;;;;;;;;;;;;;5036427;28;19925;-90
2023/01/21 03:00:24;;;;;;;;;;;;;;;;;;5036391;28;19925;-91
2023/01/21 03:02:50;;;;;;;;;;;;;;;;;;5036584;28;19927;-90
2023/01/21 03:05:16;;;;;;;;;;;;;;;;;;5053149;28;19920;-90
2023/01/21 03:07:42;;;;;;;;;;;;;;;;;;5036269;28;19947;-90
2023/01/21 03:10:08;;;;;;;;;;;;;;;;;;5036474;28;19967;-90
2023/01/21 03:12:33;;;;;;;;;;;;;;;;;;5036646;28;19986;-90
2023/01/21 03:17:45;;;;;;;;;;;;;;;;;;5052872;28;19972;-91
2023/01/21 03:20:11;;;;;;;;;;;;;;;;;;5036080;28;19990;-90
2023/01/21 03:22:37;;;;;;;;;;;;;;;;;;5036435;28;19933;-91
2023/01/21 03:25:04;;;;;;;;;;;;;;;;;;5036096;28;20004;-91
2023/01/21 03:27:30;;;;;;;;;;;;;;;;;;5035369;28;19921;-90
2023/01/21 03:29:56;;;;;;;;;;;;;;;;;;5036072;28;19921;-90
2023/01/21 03:32:22;;;;;;;;;;;;;;;;;;5052539;28;19921;-90
2023/01/21 03:34:48;;;;;;;;;;;;;;;;;;5053525;28;19936;-90
2023/01/21 03:37:14;;;;;;;;;;;;;;;;;;5052778;28;19932;-90
2023/01/21 03:39:40;;;;;;;;;;;;;;;;;;5035741;28;20418;-89
2023/01/21 03:42:07;;;;;;;;;;;;;;;;;;5035587;28;19960;-90
2023/01/21 03:44:33;;;;;;;;;;;;;;;;;;5052566;28;20015;-89
2023/01/21 03:46:59;;;;;;;;;;;;;;;;;;5035272;28;20062;-90
2023/01/21 03:49:25;;;;;;;;;;;;;;;;;;5035130;28;19921;-89
2023/01/21 03:51:52;;;;;;;;;;;;;;;;;;5035679;28;19920;-91
2023/01/21 03:54:18;;;;;;;;;;;;;;;;;;5052693;28;19982;-90
2023/01/21 03:56:44;;;;;;;;;;;;;;;;;;5035546;28;19924;-91
2023/01/21 03:59:10;;;;;;;;;;;;;;;;;;5035284;28;19927;-90
2023/01/21 04:01:36;;;;;;;;;;;;;;;;;;5035346;28;20011;-91
2023/01/21 04:04:02;;;;;;;;;;;;;;;;;;5052089;28;19928;-90
2023/01/21 04:06:27;;;;;;;;;;;;;;;;;;5035246;28;19921;-90
2023/01/21 04:08:53;;;;;;;;;;;;;;;;;;5052000;28;20081;-90
2023/01/21 04:11:19;;;;;;;;;;;;;;;;;;5035452;28;19960;-91
2023/01/21 04:13:45;;;;;;;;;;;;;;;;;;5035296;28;19921;-90
2023/01/21 04:16:11;;;;;;;;;;;;;;;;;;5035029;28;20634;-90
2023/01/21 04:18:37;;;;;;;;;;;;;;;;;;5035457;28;19921;-90
2023/01/21 04:21:03;;;;;;;;;;;;;;;;;;5035179;28;19935;-90
2023/01/21 04:23:29;;;;;;;;;;;;;;;;;;5034919;28;20008;-91
2023/01/21 04:25:55;;;;;;;;;;;;;;;;;;5034699;28;19921;-89
2023/01/21 04:28:21;;;;;;;;;;;;;;;;;;5034956;28;19947;-89
2023/01/21 04:30:47;;;;;;;;;;;;;;;;;;5051372;28;20087;-89
2023/01/21 04:33:13;;;;;;;;;;;;;;;;;;5051198;28;19976;-90
2023/01/21 04:35:38;;;;;;;;;;;;;;;;;;5051239;28;19959;-89
2023/01/21 04:38:04;;;;;;;;;;;;;;;;;;5034210;28;19943;-89
2023/01/21 04:40:33;;;;;;;;;;;;;;;;;;5035018;28;19925;-89
2023/01/21 04:42:59;;;;;;;;;;;;;;;;;;5034866;28;19920;-89
2023/01/21 04:45:25;;;;;;;;;;;;;;;;;;5034721;28;19921;-89
2023/01/21 04:47:51;;;;;;;;;;;;;;;;;;5051372;28;19932;-90
2023/01/21 04:50:17;;;;;;;;;;;;;;;;;;5034657;28;20376;-90
2023/01/21 04:52:43;;;;;;;;;;;;;;;;;;5051218;28;19921;-90
2023/01/21 04:55:09;;;;;;;;;;;;;;;;;;5034585;28;20387;-90
2023/01/21 04:57:35;;;;;;;;;;;;;;;;;;5050984;28;19925;-90
2023/01/21 05:00:00;;;;;;;;;;;;;;;;;;5035175;28;19971;-90
2023/01/21 05:02:27;;;;;;;;;;;;;;;;;;5054625;28;20000;-90
2023/01/21 05:04:52;;;;;;;;;;;;;;;;;;5037960;28;20392;-90
2023/01/21 05:07:18;;;;;;;;;;;;;;;;;;5037685;28;19968;-90
2023/01/21 05:09:44;;;;;;;;;;;;;;;;;;5037771;28;20226;-90
2023/01/21 05:12:10;;;;;;;;;;;;;;;;;;5037779;28;19979;-89
2023/01/21 05:14:36;;;;;;;;;;;;;;;;;;5054212;28;19974;-90
2023/01/21 05:17:02;;;;;;;;;;;;;;;;;;5037458;28;19964;-89
2023/01/21 05:19:28;;;;;;;;;;;;;;;;;;5037262;28;19921;-89
2023/01/21 05:21:54;;;;;;;;;;;;;;;;;;5037663;28;19924;-89
2023/01/21 05:24:20;;;;;;;;;;;;;;;;;;5054147;28;19976;-91
2023/01/21 05:26:48;;;;;;;;;;;;;;;;;;5037869;28;20130;-90
2023/01/21 05:29:15;;;;;;;;;;;;;;;;;;5037382;28;19921;-90
2023/01/21 05:31:42;;;;;;;;;;;;;;;;;;5054137;28;20481;-90
2023/01/21 05:34:08;;;;;;;;;;;;;;;;;;5037473;28;19967;-90
2023/01/21 05:36:34;;;;;;;;;;;;;;;;;;5037551;28;19936;-90
2023/01/21 05:38:59;;;;;;;;;;;;;;;;;;5037272;28;19921;-90
2023/01/21 05:41:25;;;;;;;;;;;;;;;;;;5037387;28;19981;-90
2023/01/21 05:43:51;;;;;;;;;;;;;;;;;;5037359;28;19978;-89
2023/01/21 05:46:18;;;;;;;;;;;;;;;;;;5037249;28;19950;-90
2023/01/21 05:48:43;;;;;;;;;;;;;;;;;;5037709;28;19925;-90
2023/01/21 05:51:09;;;;;;;;;;;;;;;;;;5041461;28;19995;-90
2023/01/21 05:53:35;;;;;;;;;;;;;;;;;;5041341;28;19920;-91
2023/01/21 05:56:01;;;;;;;;;;;;;;;;;;5041149;28;19966;-90
2023/01/21 05:58:27;;;;;;;;;;;;;;;;;;5057778;28;19971;-90
2023/01/21 06:00:53;;;;;;;;;;;;;;;;;;5057642;28;19971;-91
2023/01/21 06:03:19;;;;;;;;;;;;;;;;;;5041310;28;19960;-91
2023/01/21 06:05:45;;;;;;;;;;;;;;;;;;5041677;28;20375;-90
2023/01/21 06:08:14;;;;;;;;;;;;;;;;;;5057323;28;20394;-89
2023/01/21 06:10:40;;;;;;;;;;;;;;;;;;5057571;28;20371;-91
2023/01/21 06:13:06;;;;;;;;;;;;;;;;;;5057286;28;19928;-90
2023/01/21 06:15:32;;;;;;;;;;;;;;;;;;5057474;28;19920;-91
2023/01/21 06:17:58;;;;;;;;;;;;;;;;;;5040862;28;20299;-91
2023/01/21 06:20:24;;;;;;;;;;;;;;;;;;5057276;28;19924;-90
2023/01/21 06:22:50;;;;;;;;;;;;;;;;;;5040855;28;20352;-90
2023/01/21 06:25:16;;;;;;;;;;;;;;;;;;5057047;28;19974;-91
2023/01/21 06:27:42;;;;;;;;;;;;;;;;;;5056956;28;19928;-90
2023/01/21 06:30:08;;;;;;;;;;;;;;;;;;5057264;28;19920;-91
2023/01/21 06:32:34;;;;;;;;;;;;;;;;;;5040368;28;20000;-91
2023/01/21 06:35:00;;;;;;;;;;;;;;;;;;5040664;28;20368;-92
2023/01/21 06:37:26;;;;;;;;;;;;;;;;;;5057282;28;19920;-91
2023/01/21 06:39:52;;;;;;;;;;;;;;;;;;5040502;28;19931;-92
2023/01/21 06:42:18;;;;;;;;;;;;;;;;;;5040837;28;20387;-91
2023/01/21 06:44:44;;;;;;;;;;;;;;;;;;5040562;28;20019;-91
2023/01/21 06:47:10;;;;;;;;;;;;;;;;;;5040130;28;19935;-91
2023/01/21 06:49:36;;;;;;;;;;;;;;;;;;5039926;28;19936;-91
2023/01/21 06:52:01;;;;;;;;;;;;;;;;;;5040045;28;19920;-92
2023/01/21 06:54:27;;;;;;;;;;;;;;;;;;5056800;28;19965;-91
2023/01/21 06:56:53;;;;;;;;;;;;;;;;;;5056474;28;20027;-91
2023/01/21 06:59:19;;;;;;;;;;;;;;;;;;5039820;28;20015;-91
2023/01/21 07:01:45;;;;;;;;;;;;;;;;;;5055342;28;20330;-91
2023/01/21 07:04:11;;;;;;;;;;;;;;;;;;5056337;28;20320;-90
2023/01/21 07:06:37;;;;;;;;;;;;;;;;;;5039641;28;19925;-91
2023/01/21 07:09:03;;;;;;;;;;;;;;;;;;5039704;28;19920;-91
2023/01/21 07:11:29;;;;;;;;;;;;;;;;;;5056372;28;19931;-90
2023/01/21 07:13:55;;;;;;;;;;;;;;;;;;5056494;28;20268;-91
2023/01/21 07:16:20;;;;;;;;;;;;;;;;;;5039790;28;20016;-91
2023/01/21 07:18:46;;;;;;;;;;;;;;;;;;5056973;28;19932;-92
2023/01/21 07:21:12;;;;;;;;;;;;;;;;;;5039863;28;19970;-91
2023/01/21 07:23:38;;;;;;;;;;;;;;;;;;5039770;28;20375;-90
2023/01/21 07:26:04;;;;;;;;;;;;;;;;;;5056217;28;19928;-91
2023/01/21 07:28:30;;;;;;;;;;;;;;;;;;5039930;28;20383;-91
2023/01/21 07:30:56;;;;;;;;;;;;;;;;;;5039509;28;19920;-91
2023/01/21 07:33:22;;;;;;;;;;;;;;;;;;5055901;28;19931;-91
2023/01/21 07:35:48;;;;;;;;;;;;;;;;;;5056430;28;19921;-92
2023/01/21 07:38:14;;;;;;;;;;;;;;;;;;5039118;28;20053;-91
2023/01/21 07:40:40;;;;;;;;;;;;;;;;;;5039075;28;20351;-91
2023/01/21 07:43:06;;;;;;;;;;;;;;;;;;5039278;28;20371;-91
2023/01/21 07:45:32;;;;;;;;;;;;;;;;;;5039351;28;19928;-92
2023/01/21 07:48:01;;;;;;;;;;;;;;;;;;5059496;28;19931;-94
2023/01/21 07:50:27;;;;;;;;;;;;;;;;;;5042142;28;19924;-96
2023/01/21 07:53:03;;;;;;;;;;;;;;;;;;;;;
2023/01/21 07:55:33;;;;;;;;;;;;;;;;;;5063215;28;19982;-95
2023/01/21 07:58:14;;;;;;;;;;;;;;;;;;5033942;28;19939;-94
2023/01/21 08:00:40;;;;;;;;;;;;;;;;;;5042923;28;19924;-92
2023/01/21 08:03:06;;;;;;;;;;;;;;;;;;5042793;28;19950;-92
2023/01/21 08:05:34;;;;;;;;;;;;;;;;;;5043116;28;20263;-93
2023/01/21 08:08:00;;;;;;;;;;;;;;;;;;5042952;28;20000;-94
2023/01/21 08:10:26;;;;;;;;;;;;;;;;;;5060339;28;20286;-91
2023/01/21 08:12:55;;;;;;;;;;;;;;;;;;5042133;28;19955;-93
2023/01/21 08:15:21;;;;;;;;;;;;;;;;;;5042100;28;20333;-93
2023/01/21 08:17:47;;;;;;;;;;;;;;;;;;5042039;28;19925;-93
2023/01/21 08:20:14;;;;;;;;;;;;;;;;;;5058724;28;20343;-94
2023/01/21 08:22:49;;;;;;;;;;;;;;;;;;5042611;28;19968;-95
2023/01/21 08:25:18;;;;;;;;;;;;;;;;;;5042482;28;19926;-93
2023/01/21 08:27:44;;;;;;;;;;;;;;;;;;5043425;28;20313;-92
2023/01/21 08:30:10;;;;;;;;;;;;;;;;;;5042376;28;19936;-92
2023/01/21 08:32:36;;;;;;;;;;;;;;;;;;5042799;28;19940;-94
2023/01/21 08:35:01;;;;;;;;;;;;;;;;;;5041226;28;19927;-92
2023/01/21 08:37:31;;;;;;;;;;;;;;;;;;5041268;28;19921;-94
2023/01/21 08:39:57;;;;;;;;;;;;;;;;;;5041696;28;19940;-92
2023/01/21 08:42:41;;;;;;;;;;;;;;;;;;5041378;28;20015;-94
2023/01/21 08:45:07;;;;;;;;;;;;;;;;;;5041372;28;19994;-93
2023/01/21 08:47:32;;;;;;;;;;;;;;;;;;5041627;28;20003;-92
2023/01/21 08:49:58;;;;;;;;;;;;;;;;;;5040883;28;19931;-92
2023/01/21 08:52:24;;;;;;;;;;;;;;;;;;5041421;28;19920;-90
2023/01/21 08:54:50;;;;;;;;;;;;;;;;;;5040856;28;20050;-92
2023/01/21 08:57:19;;;;;;;;;;;;;;;;;;5057500;28;21389;-92
2023/01/21 08:59:45;;;;;;;;;;;;;;;;;;5040640;28;19978;-89
2023/01/21 09:02:11;;;;;;;;;;;;;;;;;;5040605;28;20334;-91
2023/01/21 09:04:37;;;;;;;;;;;;;;;;;;5040707;28;19924;-92
2023/01/21 09:07:03;;;;;;;;;;;;;;;;;;5040876;28;19927;-91
2023/01/21 09:09:29;;;;;;;;;;;;;;;;;;5040742;28;19960;-93
2023/01/21 09:11:55;;;;;;;;;;;;;;;;;;5040796;28;19920;-91
2023/01/21 09:14:21;;;;;;;;;;;;;;;;;;5041293;28;19931;-91
2023/01/21 09:16:47;;;;;;;;;;;;;;;;;;5057642;28;19998;-91
2023/01/21 09:19:13;;;;;;;;;;;;;;;;;;5040576;28;20007;-91
2023/01/21 09:21:39;;;;;;;;;;;;;;;;;;5039860;28;19960;-90
2023/01/21 09:24:05;;;;;;;;;;;;;;;;;;5057895;28;20358;-90
2023/01/21 09:26:31;;;;;;;;;;;;;;;;;;5061162;28;20348;-90
2023/01/21 09:28:57;;;;;;;;;;;;;;;;;;5043851;28;19931;-89
2023/01/21 09:31:23;;;;;;;;;;;;;;;;;;5044002;28;19950;-90
2023/01/21 09:33:49;;;;;;;;;;;;;;;;;;5061396;28;19920;-92
2023/01/21 09:36:15;;;;;;;;;;;;;;;;;;5061465;28;19927;-92
2023/01/21 09:38:42;;;;;;;;;;;;;;;;;;5044622;28;20283;-92
2023/01/21 09:41:07;;;;;;;;;;;;;;;;;;5044629;28;20150;-91
2023/01/21 09:43:33;;;;;;;;;;;;;;;;;;5044238;28;19928;-91
2023/01/21 09:45:59;;;;;;;;;;;;;;;;;;5043827;28;19921;-91
2023/01/21 09:48:25;;;;;;;;;;;;;;;;;;5044228;28;19964;-89
2023/01/21 09:50:51;;;;;;;;;;;;;;;;;;5059911;28;19990;-90
2023/01/21 09:53:17;;;;;;;;;;;;;;;;;;5060258;28;19924;-89
2023/01/21 09:55:45;;;;;;;;;;;;;;;;;;5060182;28;19920;-88
2023/01/21 09:58:12;;;;;;;;;;;;;;;;;;5060130;28;19924;-91
2023/01/21 10:00:38;;;;;;;;;;;;;;;;;;5061065;28;19928;-91
2023/01/21 10:03:04;;;;;;;;;;;;;;;;;;5060469;28;19974;-91
2023/01/21 10:05:30;;;;;;;;;;;;;;;;;;5043107;28;20003;-90
2023/01/21 10:07:56;;;;;;;;;;;;;;;;;;5037919;28;20409;-90
2023/01/21 10:10:22;;;;;;;;;;;;;;;;;;5039283;28;19920;-90
2023/01/21 10:12:48;;;;;;;;;;;;;;;;;;5039053;28;19968;-91
2023/01/21 10:15:14;;;;;;;;;;;;;;;;;;5036653;28;19927;-90
2023/01/21 10:17:43;;;;;;;;;;;;;;;;;;5043336;28;20011;-90
2023/01/21 10:20:08;;;;;;;;;;;;;;;;;;5061230;28;20337;-92
2023/01/21 10:22:40;;;;;;;;;;;;;;;;;;5044186;28;20033;-92
2023/01/21 10:28:05;;;;;;;;;;;;;;;;;;5064864;28;19920;-95
2023/01/21 10:30:34;;;;;;;;;;;;;;;;;;5043752;28;19927;-92
2023/01/21 10:33:02;;;;;;;;;;;;;;;;;;5044117;28;20374;-91
2023/01/21 10:35:28;;;;;;;;;;;;;;;;;;5042656;28;19943;-93
2023/01/21 10:37:54;;;;;;;;;;;;;;;;;;5023016;28;19921;-93
2023/01/21 10:40:41;;;;;;;;;;;;;;;;;;5023590;28;19963;-92
2023/01/21 10:43:06;;;;;;;;;;;;;;;;;;5040239;28;19927;-92
2023/01/21 10:45:35;;;;;;;;;;;;;;;;;;5023792;28;20352;-92
2023/01/21 10:48:01;;;;;;;;;;;;;;;;;;5023977;28;19971;-92
2023/01/21 10:50:42;;;;;;;;;;;;;;;;;;5034108;28;19921;-93
2023/01/21 10:53:08;;;;;;;;;;;;;;;;;;5024038;28;19966;-92
2023/01/21 10:55:34;;;;;;;;;;;;;;;;;;5023065;28;19920;-93
2023/01/21 10:58:00;;;;;;;;;;;;;;;;;;5039964;28;19921;-93
2023/01/21 11:00:25;;;;;;;;;;;;;;;;;;5022667;28;19925;-92
2023/01/21 11:02:51;;;;;;;;;;;;;;;;;;5022915;28;20374;-92
2023/01/21 11:05:17;;;;;;;;;;;;;;;;;;5022389;28;19925;-92
2023/01/21 11:07:43;;;;;;;;;;;;;;;;;;5022990;28;19932;-93
2023/01/21 11:10:09;;;;;;;;;;;;;;;;;;5023280;28;20244;-92
2023/01/21 11:12:35;;;;;;;;;;;;;;;;;;5023492;28;20061;-90
2023/01/21 11:15:01;;;;;;;;;;;;;;;;;;5023799;28;19951;-91
2023/01/21 11:17:30;;;;;;;;;;;;;;;;;;5022786;28;19925;-92
2023/01/21 11:19:56;;;;;;;;;;;;;;;;;;5038631;28;19928;-91
2023/01/21 11:22:24;;;;;;;;;;;;;;;;;;5038443;28;19925;-91
2023/01/21 11:24:50;;;;;;;;;;;;;;;;;;5038492;28;20012;-91
2023/01/21 11:27:16;;;;;;;;;;;;;;;;;;5023208;28;19944;-92
2023/01/21 11:29:42;;;;;;;;;;;;;;;;;;5023795;28;19921;-92
2023/01/21 11:32:19;;;;;;;;;;;;;;;;;;5025256;28;19920;-95
2023/01/21 11:34:45;;;;;;;;;;;;;;;;;;5024547;28;19981;-92
2023/01/21 11:37:11;;;;;;;;;;;;;;;;;;5021508;28;20035;-91
2023/01/21 11:39:37;;;;;;;;;;;;;;;;;;5021315;28;19933;-91
2023/01/21 11:42:02;;;;;;;;;;;;;;;;;;5021361;28;20002;-90
2023/01/21 11:44:28;;;;;;;;;;;;;;;;;;5021592;28;19924;-89
2023/01/21 11:46:54;;;;;;;;;;;;;;;;;;5021236;28;20383;-90
2023/01/21 11:49:20;;;;;;;;;;;;;;;;;;5021580;28;20413;-91
2023/01/21 11:51:46;;;;;;;;;;;;;;;;;;5038499;28;19966;-91
2023/01/21 11:54:12;;;;;;;;;;;;;;;;;;5021982;28;20280;-91
2023/01/21 11:56:38;;;;;;;;;;;;;;;;;;5021243;28;19928;-91
2023/01/21 11:59:04;;;;;;;;;;;;;;;;;;5020875;28;20273;-90
2023/01/21 12:01:30;;;;;;;;;;;;;;;;;;5021530;28;19968;-91
2023/01/21 12:03:56;;;;;;;;;;;;;;;;;;5037519;28;19927;-90
2023/01/21 12:06:22;;;;;;;;;;;;;;;;;;5020714;28;19983;-91
2023/01/21 12:08:48;;;;;;;;;;;;;;;;;;5022366;28;19921;-93
2023/01/21 12:11:14;;;;;;;;;;;;;;;;;;5021658;28;19920;-89
2023/01/21 12:13:40;;;;;;;;;;;;;;;;;;5020891;28;19928;-90
2023/01/21 12:16:06;;;;;;;;;;;;;;;;;;5037875;28;19928;-89
2023/01/21 12:18:31;;;;;;;;;;;;;;;;;;5037205;28;19921;-89
2023/01/21 12:20:57;;;;;;;;;;;;;;;;;;5020049;28;19929;-88
2023/01/21 12:23:23;;;;;;;;;;;;;;;;;;5018929;28;20368;-90
2023/01/21 12:25:49;;;;;;;;;;;;;;;;;;5018345;28;20272;-88
2023/01/21 12:28:16;;;;;;;;;;;;;;;;;;5034811;28;19921;-88
2023/01/21 12:30:41;;;;;;;;;;;;;;;;;;5034914;28;19971;-89
2023/01/21 12:33:07;;;;;;;;;;;;;;;;;;5018323;28;20019;-91
2023/01/21 12:35:33;;;;;;;;;;;;;;;;;;5034796;28;19990;-91
2023/01/21 12:38:00;;;;;;;;;;;;;;;;;;5034638;28;20442;-92
2023/01/21 12:40:26;;;;;;;;;;;;;;;;;;5034709;28;20260;-90
2023/01/21 12:42:52;;;;;;;;;;;;;;;;;;5017993;28;19921;-90
2023/01/21 12:45:18;;;;;;;;;;;;;;;;;;5034275;28;19940;-89
2023/01/21 12:47:47;;;;;;;;;;;;;;;;;;5018244;28;19970;-87
2023/01/21 12:50:13;;;;;;;;;;;;;;;;;;5017794;28;20027;-89
2023/01/21 12:52:39;;;;;;;;;;;;;;;;;;5017640;28;20005;-89
2023/01/21 12:55:05;;;;;;;;;;;;;;;;;;5017402;28;19921;-88
2023/01/21 12:57:30;;;;;;;;;;;;;;;;;;5033780;28;19920;-88
2023/01/21 12:59:56;;;;;;;;;;;;;;;;;;5033530;28;19924;-88
2023/01/21 13:02:22;;;;;;;;;;;;;;;;;;5033564;28;19925;-88
2023/01/21 13:04:48;;;;;;;;;;;;;;;;;;5017567;28;19982;-89
2023/01/21 13:07:14;;;;;;;;;;;;;;;;;;5017677;28;19937;-89
2023/01/21 13:09:40;;;;;;;;;;;;;;;;;;5017394;28;20015;-88
2023/01/21 13:12:06;;;;;;;;;;;;;;;;;;5033818;28;19927;-88
2023/01/21 13:14:32;;;;;;;;;;;;;;;;;;5017718;28;19927;-88
2023/01/21 13:16:58;;;;;;;;;;;;;;;;;;5017637;28;19931;-88
2023/01/21 13:19:24;;;;;;;;;;;;;;;;;;5033780;28;19925;-89
2023/01/21 13:21:50;;;;;;;;;;;;;;;;;;5017052;28;19925;-89
2023/01/21 13:24:19;;;;;;;;;;;;;;;;;;5017715;28;19925;-89
2023/01/21 13:26:45;;;;;;;;;;;;;;;;;;5017214;28;19928;-89
2023/01/21 13:29:10;;;;;;;;;;;;;;;;;;5033767;28;19929;-89
2023/01/21 13:31:36;;;;;;;;;;;;;;;;;;5017458;28;20011;-89
2023/01/21 13:34:02;;;;;;;;;;;;;;;;;;5034467;28;19925;-90
2023/01/21 13:36:28;;;;;;;;;;;;;;;;;;5018396;28;19939;-91
2023/01/21 13:38:57;;;;;;;;;;;;;;;;;;5034039;28;19932;-92
2023/01/21 13:41:23;;;;;;;;;;;;;;;;;;5017566;28;19990;-91
2023/01/21 13:43:55;;;;;;;;;;;;;;;;;;5017577;28;19920;-91
2023/01/21 13:46:24;;;;;;;;;;;;;;;;;;5033719;28;19921;-91
2023/01/21 13:48:50;;;;;;;;;;;;;;;;;;5034112;28;19921;-91
2023/01/21 13:51:19;;;;;;;;;;;;;;;;;;5033930;28;19927;-91
2023/01/21 13:53:44;;;;;;;;;;;;;;;;;;5017614;28;20007;-94
2023/01/21 13:56:13;;;;;;;;;;;;;;;;;;5017383;28;19968;-91
2023/01/21 14:01:35;;;;;;;;;;;;;;;;;;5026539;28;20372;-93
2023/01/21 14:04:06;;;;;;;;;;;;;;;;;;5019011;28;19967;-92
2023/01/21 14:06:35;;;;;;;;;;;;;;;;;;5017878;28;19921;-91
2023/01/21 14:09:01;;;;;;;;;;;;;;;;;;5017285;28;19921;-92
2023/01/21 14:11:27;;;;;;;;;;;;;;;;;;5019743;28;19967;-92
2023/01/21 14:13:53;;;;;;;;;;;;;;;;;;5021324;28;19924;-91
2023/01/21 14:16:19;;;;;;;;;;;;;;;;;;5020876;28;20023;-92
2023/01/21 14:18:45;;;;;;;;;;;;;;;;;;5021459;28;20281;-92
2023/01/21 14:21:11;;;;;;;;;;;;;;;;;;5038103;28;19975;-88
2023/01/21 14:23:37;;;;;;;;;;;;;;;;;;5021326;28;19980;-92
2023/01/21 14:26:02;;;;;;;;;;;;;;;;;;5038078;28;20011;-96
2023/01/21 14:28:28;;;;;;;;;;;;;;;;;;5024260;28;19921;-94
2023/01/21 14:30:57;;;;;;;;;;;;;;;;;;5037371;28;20355;-91
2023/01/21 14:33:23;;;;;;;;;;;;;;;;;;5020879;28;19927;-94
2023/01/21 14:35:49;;;;;;;;;;;;;;;;;;5020675;28;19921;-94
2023/01/21 14:38:15;;;;;;;;;;;;;;;;;;5037544;28;19921;-92
2023/01/21 14:40:41;;;;;;;;;;;;;;;;;;5036938;28;19925;-91
2023/01/21 14:43:07;;;;;;;;;;;;;;;;;;5036370;28;20004;-90
2023/01/21 14:45:33;;;;;;;;;;;;;;;;;;5036656;28;20344;-90
2023/01/21 14:47:59;;;;;;;;;;;;;;;;;;5020191;28;20015;-90
2023/01/21 14:50:25;;;;;;;;;;;;;;;;;;5036327;28;19982;-90
2023/01/21 14:52:51;;;;;;;;;;;;;;;;;;5037425;28;19990;-90
2023/01/21 14:55:17;;;;;;;;;;;;;;;;;;5019814;28;20421;-91
2023/01/21 14:57:43;;;;;;;;;;;;;;;;;;5036233;28;20016;-91
2023/01/21 15:00:09;;;;;;;;;;;;;;;;;;5036645;28;20037;-90
2023/01/21 15:02:34;;;;;;;;;;;;;;;;;;5036969;28;19925;-91
2023/01/21 15:05:00;;;;;;;;;;;;;;;;;;5036055;28;19928;-90
2023/01/21 15:07:26;;;;;;;;;;;;;;;;;;5018483;28;20272;-90
2023/01/21 15:09:55;;;;;;;;;;;;;;;;;;5042760;28;19991;-90
2023/01/21 15:12:21;;;;;;;;;;;;;;;;;;5055739;28;20008;-91
2023/01/21 15:14:48;;;;;;;;;;;;;;;;;;5055718;28;19959;-91
2023/01/21 15:17:13;;;;;;;;;;;;;;;;;;5056435;28;19935;-92
2023/01/21 15:19:42;;;;;;;;;;;;;;;;;;5039407;28;19920;-90
2023/01/21 15:22:11;;;;;;;;;;;;;;;;;;5039336;28;19925;-91
2023/01/21 15:24:37;;;;;;;;;;;;;;;;;;5039484;28;19931;-91
2023/01/21 15:27:05;;;;;;;;;;;;;;;;;;5055596;28;19920;-91
2023/01/21 15:29:34;;;;;;;;;;;;;;;;;;5038914;28;19921;-91
2023/01/21 15:32:00;;;;;;;;;;;;;;;;;;5039129;28;19927;-90
2023/01/21 15:34:26;;;;;;;;;;;;;;;;;;5055407;28;19920;-90
2023/01/21 15:36:55;;;;;;;;;;;;;;;;;;5021413;28;19921;-91
2023/01/21 15:39:23;;;;;;;;;;;;;;;;;;5018962;28;20015;-91
2023/01/21 15:41:52;;;;;;;;;;;;;;;;;;5018867;28;19931;-91
2023/01/21 15:44:20;;;;;;;;;;;;;;;;;;5035220;28;20439;-90
2023/01/21 15:46:48;;;;;;;;;;;;;;;;;;5019223;28;19963;-91
2023/01/21 15:49:15;;;;;;;;;;;;;;;;;;5018844;28;19959;-91
2023/01/21 15:51:44;;;;;;;;;;;;;;;;;;5053107;28;20376;-90
2023/01/21 15:54:10;;;;;;;;;;;;;;;;;;5018521;28;19921;-90
2023/01/21 15:56:35;;;;;;;;;;;;;;;;;;5019278;28;19956;-93
2023/01/21 15:59:05;;;;;;;;;;;;;;;;;;5019189;28;19970;-93
2023/01/21 16:01:31;;;;;;;;;;;;;;;;;;5015824;28;20016;-94
2023/01/21 16:06:45;;;;;;;;;;;;;;;;;;5025714;28;19978;-95
2023/01/21 16:15:08;;;;;;;;;;;;;;;;;;5005605;28;19971;-94
2023/01/21 16:20:54;;;;;;;;;;;;;;;;;;5014645;28;19928;-96
2023/01/21 16:23:33;;;;;;;;;;;;;;;;;;;;;
2023/01/21 16:26:31;;;;;;;;;;;;;;;;;;5035665;28;19999;-96
2023/01/21 16:28:57;;;;;;;;;;;;;;;;;;5016148;28;20280;-93
2023/01/21 16:40:00;;;;;;;;;;;;;;;;;;5916794;22;19929;-93
2023/01/21 16:42:31;;;;;;;;;;;;;;;;;;5005519;28;19948;-96
2023/01/21 16:47:37;;;;;;;;;;;;;;;;;;5632776;22;20008;-95
2023/01/21 16:50:04;;;;;;;;;;;;;;;;;;4999170;28;19982;-94
2023/01/21 16:55:42;;;;;;;;;;;;;;;;;;5437698;22;19925;-96
2023/01/21 16:58:08;;;;;;;;;;;;;;;;;;5002905;28;19959;-95
2023/01/21 17:00:47;;;;;;;;;;;;;;;;;;;;;
2023/01/21 17:03:26;;;;;;;;;;;;;;;;;;5015165;28;19921;-95
2023/01/21 17:05:55;;;;;;;;;;;;;;;;;;4999333;28;19929;-95
2023/01/21 17:11:19;;;;;;;;;;;;;;;;;;5010134;28;19921;-94
2023/01/21 17:14:11;;;;;;;;;;;;;;;;;;5002576;28;20000;-96
2023/01/21 17:16:34;;;;;;;;;;;;;;;;;;5013691;28;19976;-94
2023/01/21 17:19:12;;;;;;;;;;;;;;;;;;5003797;28;19921;-96
2023/01/21 17:21:57;;;;;;;;;;;;;;;;;;5012636;28;19925;-96